sensor_id;sensor_type;location;lat;lon;timestamp;P1;durP1;ratioP1;P2;durP2;ratioP2
3311;SDS011;1668;49.648;8.570;2023-11-19T00:01:24;6.93;;;4.00;;
3311;SDS011;1668;49.648;8.570;2023-11-19T00:03:51;4.23;;;3.67;;
3311;SDS011;1668;49.648;8.570;2023-11-19T00:06:19;5.77;;;4.43;;
3311;SDS011;1668;49.648;8.570;2023-11-19T00:08:46;5.37;;;3.53;;
3311;SDS011;1668;49.648;8.570;2023-11-19T00:11:13;7.70;;;4.10;;
3311;SDS011;1668;49.648;8.570;2023-11-19T00:13:40;6.50;;;4.03;;
3311;SDS011;1668;49.648;8.570;2023-11-19T00:16:07;4.77;;;4.27;;
3311;SDS011;1668;49.648;8.570;2023-11-19T00:18:35;5.23;;;4.10;;
3311;SDS011;1668;49.648;8.570;2023-11-19T00:21:02;4.00;;;3.47;;
3311;SDS011;1668;49.648;8.570;2023-11-19T00:23:30;6.40;;;5.20;;
3311;SDS011;1668;49.648;8.570;2023-11-19T00:25:57;6.37;;;4.37;;
3311;SDS011;1668;49.648;8.570;2023-11-19T00:28:24;4.47;;;3.87;;
3311;SDS011;1668;49.648;8.570;2023-11-19T00:30:51;5.93;;;3.93;;
3311;SDS011;1668;49.648;8.570;2023-11-19T00:33:18;3.50;;;3.10;;
3311;SDS011;1668;49.648;8.570;2023-11-19T00:35:44;4.20;;;3.10;;
3311;SDS011;1668;49.648;8.570;2023-11-19T00:38:11;5.50;;;3.40;;
3311;SDS011;1668;49.648;8.570;2023-11-19T00:40:39;5.30;;;3.40;;
3311;SDS011;1668;49.648;8.570;2023-11-19T00:43:07;4.63;;;3.33;;
3311;SDS011;1668;49.648;8.570;2023-11-19T00:45:34;6.40;;;3.17;;
3311;SDS011;1668;49.648;8.570;2023-11-19T00:48:00;4.00;;;3.30;;
3311;SDS011;1668;49.648;8.570;2023-11-19T00:50:27;3.50;;;3.20;;
3311;SDS011;1668;49.648;8.570;2023-11-19T00:52:56;3.93;;;3.50;;
3311;SDS011;1668;49.648;8.570;2023-11-19T00:55:23;6.00;;;3.47;;
3311;SDS011;1668;49.648;8.570;2023-11-19T00:57:51;5.20;;;3.33;;
3311;SDS011;1668;49.648;8.570;2023-11-19T01:00:18;4.03;;;3.10;;
3311;SDS011;1668;49.648;8.570;2023-11-19T01:02:46;4.60;;;3.40;;
3311;SDS011;1668;49.648;8.570;2023-11-19T01:05:15;3.20;;;2.90;;
3311;SDS011;1668;49.648;8.570;2023-11-19T01:07:42;3.80;;;3.13;;
3311;SDS011;1668;49.648;8.570;2023-11-19T01:10:09;3.00;;;2.70;;
3311;SDS011;1668;49.648;8.570;2023-11-19T01:12:36;3.93;;;3.10;;
3311;SDS011;1668;49.648;8.570;2023-11-19T01:15:05;2.47;;;2.27;;
3311;SDS011;1668;49.648;8.570;2023-11-19T01:17:32;3.90;;;2.70;;
3311;SDS011;1668;49.648;8.570;2023-11-19T01:20:00;2.80;;;2.33;;
3311;SDS011;1668;49.648;8.570;2023-11-19T01:22:27;3.50;;;2.20;;
3311;SDS011;1668;49.648;8.570;2023-11-19T01:24:54;5.73;;;2.60;;
3311;SDS011;1668;49.648;8.570;2023-11-19T01:27:20;2.70;;;2.23;;
3311;SDS011;1668;49.648;8.570;2023-11-19T01:29:47;6.00;;;2.23;;
3311;SDS011;1668;49.648;8.570;2023-11-19T01:32:15;7.90;;;1.90;;
3311;SDS011;1668;49.648;8.570;2023-11-19T01:34:42;2.67;;;2.17;;
3311;SDS011;1668;49.648;8.570;2023-11-19T01:37:09;2.90;;;2.20;;
3311;SDS011;1668;49.648;8.570;2023-11-19T01:39:37;3.30;;;2.27;;
3311;SDS011;1668;49.648;8.570;2023-11-19T01:42:04;3.30;;;2.43;;
3311;SDS011;1668;49.648;8.570;2023-11-19T01:44:31;2.30;;;2.10;;
3311;SDS011;1668;49.648;8.570;2023-11-19T01:46:58;3.23;;;2.13;;
3311;SDS011;1668;49.648;8.570;2023-11-19T01:49:27;2.90;;;2.10;;
3311;SDS011;1668;49.648;8.570;2023-11-19T01:51:55;2.40;;;1.93;;
3311;SDS011;1668;49.648;8.570;2023-11-19T01:54:24;2.07;;;1.87;;
3311;SDS011;1668;49.648;8.570;2023-11-19T01:56:51;2.60;;;2.27;;
3311;SDS011;1668;49.648;8.570;2023-11-19T01:59:21;2.63;;;1.80;;
3311;SDS011;1668;49.648;8.570;2023-11-19T02:01:51;3.23;;;2.20;;
3311;SDS011;1668;49.648;8.570;2023-11-19T02:04:19;2.97;;;1.90;;
3311;SDS011;1668;49.648;8.570;2023-11-19T02:06:49;2.73;;;1.90;;
3311;SDS011;1668;49.648;8.570;2023-11-19T02:09:20;2.30;;;2.03;;
3311;SDS011;1668;49.648;8.570;2023-11-19T02:11:47;2.50;;;2.13;;
3311;SDS011;1668;49.648;8.570;2023-11-19T02:14:16;2.20;;;2.00;;
3311;SDS011;1668;49.648;8.570;2023-11-19T02:16:45;2.10;;;1.90;;
3311;SDS011;1668;49.648;8.570;2023-11-19T02:19:12;2.30;;;1.90;;
3311;SDS011;1668;49.648;8.570;2023-11-19T02:21:39;2.73;;;1.83;;
3311;SDS011;1668;49.648;8.570;2023-11-19T02:24:08;2.07;;;1.70;;
3311;SDS011;1668;49.648;8.570;2023-11-19T02:26:42;4.20;;;1.60;;
3311;SDS011;1668;49.648;8.570;2023-11-19T02:29:14;2.47;;;1.67;;
3311;SDS011;1668;49.648;8.570;2023-11-19T02:31:42;4.33;;;1.60;;
3311;SDS011;1668;49.648;8.570;2023-11-19T02:34:10;2.03;;;1.60;;
3311;SDS011;1668;49.648;8.570;2023-11-19T02:36:37;1.77;;;1.50;;
3311;SDS011;1668;49.648;8.570;2023-11-19T02:39:06;1.90;;;1.70;;
3311;SDS011;1668;49.648;8.570;2023-11-19T02:41:37;2.37;;;2.07;;
3311;SDS011;1668;49.648;8.570;2023-11-19T02:44:05;1.77;;;1.60;;
3311;SDS011;1668;49.648;8.570;2023-11-19T02:46:33;2.00;;;1.80;;
3311;SDS011;1668;49.648;8.570;2023-11-19T02:49:00;2.20;;;1.73;;
3311;SDS011;1668;49.648;8.570;2023-11-19T02:51:27;2.03;;;1.40;;
3311;SDS011;1668;49.648;8.570;2023-11-19T02:53:55;4.67;;;1.30;;
3311;SDS011;1668;49.648;8.570;2023-11-19T02:56:22;2.63;;;1.67;;
3311;SDS011;1668;49.648;8.570;2023-11-19T02:58:51;1.93;;;1.50;;
3311;SDS011;1668;49.648;8.570;2023-11-19T03:01:22;4.13;;;1.67;;
3311;SDS011;1668;49.648;8.570;2023-11-19T03:03:56;1.70;;;1.50;;
3311;SDS011;1668;49.648;8.570;2023-11-19T03:06:23;5.33;;;1.83;;
3311;SDS011;1668;49.648;8.570;2023-11-19T03:08:50;1.90;;;1.67;;
3311;SDS011;1668;49.648;8.570;2023-11-19T03:11:17;2.33;;;1.60;;
3311;SDS011;1668;49.648;8.570;2023-11-19T03:13:44;1.60;;;1.50;;
3311;SDS011;1668;49.648;8.570;2023-11-19T03:16:11;2.10;;;1.70;;
3311;SDS011;1668;49.648;8.570;2023-11-19T03:18:39;1.97;;;1.70;;
3311;SDS011;1668;49.648;8.570;2023-11-19T03:21:07;1.80;;;1.47;;
3311;SDS011;1668;49.648;8.570;2023-11-19T03:23:34;4.13;;;1.70;;
3311;SDS011;1668;49.648;8.570;2023-11-19T03:26:01;2.37;;;1.43;;
3311;SDS011;1668;49.648;8.570;2023-11-19T03:28:30;3.07;;;1.57;;
3311;SDS011;1668;49.648;8.570;2023-11-19T03:30:57;1.57;;;1.47;;
3311;SDS011;1668;49.648;8.570;2023-11-19T03:33:24;1.80;;;1.60;;
3311;SDS011;1668;49.648;8.570;2023-11-19T03:35:52;2.00;;;1.40;;
3311;SDS011;1668;49.648;8.570;2023-11-19T03:38:22;1.33;;;1.20;;
3311;SDS011;1668;49.648;8.570;2023-11-19T03:40:49;1.87;;;1.20;;
3311;SDS011;1668;49.648;8.570;2023-11-19T03:43:16;1.90;;;1.47;;
3311;SDS011;1668;49.648;8.570;2023-11-19T03:45:44;2.10;;;1.60;;
3311;SDS011;1668;49.648;8.570;2023-11-19T03:48:11;1.30;;;1.20;;
3311;SDS011;1668;49.648;8.570;2023-11-19T03:50:38;3.13;;;1.47;;
3311;SDS011;1668;49.648;8.570;2023-11-19T03:53:05;2.67;;;1.73;;
3311;SDS011;1668;49.648;8.570;2023-11-19T03:55:34;1.70;;;1.60;;
3311;SDS011;1668;49.648;8.570;2023-11-19T03:57:59;6.80;;;1.50;;
3311;SDS011;1668;49.648;8.570;2023-11-19T04:00:26;4.33;;;1.70;;
3311;SDS011;1668;49.648;8.570;2023-11-19T04:02:53;1.97;;;1.77;;
3311;SDS011;1668;49.648;8.570;2023-11-19T04:05:20;2.37;;;1.80;;
3311;SDS011;1668;49.648;8.570;2023-11-19T04:07:47;1.70;;;1.60;;
3311;SDS011;1668;49.648;8.570;2023-11-19T04:10:14;2.77;;;2.33;;
3311;SDS011;1668;49.648;8.570;2023-11-19T04:12:43;1.70;;;1.50;;
3311;SDS011;1668;49.648;8.570;2023-11-19T04:15:10;2.90;;;1.90;;
3311;SDS011;1668;49.648;8.570;2023-11-19T04:17:37;2.07;;;1.87;;
3311;SDS011;1668;49.648;8.570;2023-11-19T04:20:05;3.23;;;1.87;;
3311;SDS011;1668;49.648;8.570;2023-11-19T04:22:35;2.73;;;1.67;;
3311;SDS011;1668;49.648;8.570;2023-11-19T04:25:03;2.93;;;1.83;;
3311;SDS011;1668;49.648;8.570;2023-11-19T04:27:30;2.33;;;2.03;;
3311;SDS011;1668;49.648;8.570;2023-11-19T04:29:59;3.23;;;2.00;;
3311;SDS011;1668;49.648;8.570;2023-11-19T04:32:27;3.43;;;1.87;;
3311;SDS011;1668;49.648;8.570;2023-11-19T04:34:54;1.83;;;1.57;;
3311;SDS011;1668;49.648;8.570;2023-11-19T04:37:21;2.63;;;1.40;;
3311;SDS011;1668;49.648;8.570;2023-11-19T04:39:48;2.60;;;1.87;;
3311;SDS011;1668;49.648;8.570;2023-11-19T04:42:14;2.50;;;2.30;;
3311;SDS011;1668;49.648;8.570;2023-11-19T04:44:42;1.80;;;1.60;;
3311;SDS011;1668;49.648;8.570;2023-11-19T04:47:11;2.93;;;2.40;;
3311;SDS011;1668;49.648;8.570;2023-11-19T04:49:39;1.90;;;1.70;;
3311;SDS011;1668;49.648;8.570;2023-11-19T04:52:08;2.00;;;1.80;;
3311;SDS011;1668;49.648;8.570;2023-11-19T04:54:35;4.70;;;1.73;;
3311;SDS011;1668;49.648;8.570;2023-11-19T04:57:02;4.87;;;2.00;;
3311;SDS011;1668;49.648;8.570;2023-11-19T04:59:29;1.50;;;1.40;;
3311;SDS011;1668;49.648;8.570;2023-11-19T05:01:56;2.47;;;1.70;;
3311;SDS011;1668;49.648;8.570;2023-11-19T05:04:24;1.90;;;1.60;;
3311;SDS011;1668;49.648;8.570;2023-11-19T05:06:51;2.07;;;1.50;;
3311;SDS011;1668;49.648;8.570;2023-11-19T05:09:18;2.23;;;1.53;;
3311;SDS011;1668;49.648;8.570;2023-11-19T05:11:45;1.53;;;1.37;;
3311;SDS011;1668;49.648;8.570;2023-11-19T05:14:13;3.37;;;1.50;;
3311;SDS011;1668;49.648;8.570;2023-11-19T05:16:41;1.73;;;1.43;;
3311;SDS011;1668;49.648;8.570;2023-11-19T05:19:08;2.00;;;1.43;;
3311;SDS011;1668;49.648;8.570;2023-11-19T05:21:36;1.50;;;1.33;;
3311;SDS011;1668;49.648;8.570;2023-11-19T05:24:03;1.40;;;1.20;;
3311;SDS011;1668;49.648;8.570;2023-11-19T05:26:30;1.83;;;1.30;;
3311;SDS011;1668;49.648;8.570;2023-11-19T05:28:57;1.90;;;1.40;;
3311;SDS011;1668;49.648;8.570;2023-11-19T05:31:24;1.53;;;1.30;;
3311;SDS011;1668;49.648;8.570;2023-11-19T05:33:51;5.00;;;1.50;;
3311;SDS011;1668;49.648;8.570;2023-11-19T05:36:18;2.23;;;1.57;;
3311;SDS011;1668;49.648;8.570;2023-11-19T05:38:46;2.67;;;1.37;;
3311;SDS011;1668;49.648;8.570;2023-11-19T05:41:13;3.60;;;1.30;;
3311;SDS011;1668;49.648;8.570;2023-11-19T05:43:40;2.60;;;1.30;;
3311;SDS011;1668;49.648;8.570;2023-11-19T05:46:07;1.40;;;1.30;;
3311;SDS011;1668;49.648;8.570;2023-11-19T05:48:34;2.13;;;1.57;;
3311;SDS011;1668;49.648;8.570;2023-11-19T05:51:01;1.40;;;1.30;;
3311;SDS011;1668;49.648;8.570;2023-11-19T05:53:28;2.67;;;1.50;;
3311;SDS011;1668;49.648;8.570;2023-11-19T05:55:56;2.40;;;1.50;;
3311;SDS011;1668;49.648;8.570;2023-11-19T05:58:23;1.60;;;1.47;;
3311;SDS011;1668;49.648;8.570;2023-11-19T06:00:54;1.50;;;1.40;;
3311;SDS011;1668;49.648;8.570;2023-11-19T06:03:21;1.70;;;1.30;;
3311;SDS011;1668;49.648;8.570;2023-11-19T06:05:48;3.23;;;1.30;;
3311;SDS011;1668;49.648;8.570;2023-11-19T06:08:15;2.17;;;1.60;;
3311;SDS011;1668;49.648;8.570;2023-11-19T06:10:42;2.47;;;1.37;;
3311;SDS011;1668;49.648;8.570;2023-11-19T06:13:12;3.20;;;1.70;;
3311;SDS011;1668;49.648;8.570;2023-11-19T06:15:41;2.00;;;1.40;;
3311;SDS011;1668;49.648;8.570;2023-11-19T06:18:07;2.60;;;1.70;;
3311;SDS011;1668;49.648;8.570;2023-11-19T06:20:36;3.23;;;1.30;;
3311;SDS011;1668;49.648;8.570;2023-11-19T06:23:03;1.93;;;1.33;;
3311;SDS011;1668;49.648;8.570;2023-11-19T06:25:30;2.00;;;1.47;;
3311;SDS011;1668;49.648;8.570;2023-11-19T06:27:57;2.03;;;1.67;;
3311;SDS011;1668;49.648;8.570;2023-11-19T06:30:26;2.40;;;1.57;;
3311;SDS011;1668;49.648;8.570;2023-11-19T06:32:53;2.93;;;1.83;;
3311;SDS011;1668;49.648;8.570;2023-11-19T06:35:20;3.00;;;2.00;;
3311;SDS011;1668;49.648;8.570;2023-11-19T06:37:47;2.40;;;1.60;;
3311;SDS011;1668;49.648;8.570;2023-11-19T06:40:14;4.03;;;1.50;;
3311;SDS011;1668;49.648;8.570;2023-11-19T06:42:41;2.27;;;1.60;;
3311;SDS011;1668;49.648;8.570;2023-11-19T06:45:08;1.43;;;1.20;;
3311;SDS011;1668;49.648;8.570;2023-11-19T06:47:37;2.23;;;1.20;;
3311;SDS011;1668;49.648;8.570;2023-11-19T06:50:04;3.40;;;1.40;;
3311;SDS011;1668;49.648;8.570;2023-11-19T06:52:32;2.27;;;1.43;;
3311;SDS011;1668;49.648;8.570;2023-11-19T06:54:59;2.67;;;1.30;;
3311;SDS011;1668;49.648;8.570;2023-11-19T06:57:26;1.67;;;1.27;;
3311;SDS011;1668;49.648;8.570;2023-11-19T06:59:54;1.53;;;1.20;;
3311;SDS011;1668;49.648;8.570;2023-11-19T07:02:21;8.40;;;1.60;;
3311;SDS011;1668;49.648;8.570;2023-11-19T07:04:54;3.57;;;1.47;;
3311;SDS011;1668;49.648;8.570;2023-11-19T07:07:26;1.40;;;1.03;;
3311;SDS011;1668;49.648;8.570;2023-11-19T07:09:53;2.37;;;1.27;;
3311;SDS011;1668;49.648;8.570;2023-11-19T07:12:19;3.13;;;1.47;;
3311;SDS011;1668;49.648;8.570;2023-11-19T07:14:46;6.23;;;1.30;;
3311;SDS011;1668;49.648;8.570;2023-11-19T07:17:13;4.00;;;2.00;;
3311;SDS011;1668;49.648;8.570;2023-11-19T07:19:40;3.17;;;1.83;;
3311;SDS011;1668;49.648;8.570;2023-11-19T07:22:08;2.23;;;1.60;;
3311;SDS011;1668;49.648;8.570;2023-11-19T07:24:38;2.57;;;1.50;;
3311;SDS011;1668;49.648;8.570;2023-11-19T07:27:05;4.20;;;1.50;;
3311;SDS011;1668;49.648;8.570;2023-11-19T07:29:33;1.90;;;1.47;;
3311;SDS011;1668;49.648;8.570;2023-11-19T07:32:01;2.13;;;1.47;;
3311;SDS011;1668;49.648;8.570;2023-11-19T07:34:28;3.20;;;1.87;;
3311;SDS011;1668;49.648;8.570;2023-11-19T07:36:55;2.27;;;1.50;;
3311;SDS011;1668;49.648;8.570;2023-11-19T07:39:25;3.20;;;2.33;;
3311;SDS011;1668;49.648;8.570;2023-11-19T07:41:52;3.77;;;2.93;;
3311;SDS011;1668;49.648;8.570;2023-11-19T07:44:20;3.17;;;2.70;;
3311;SDS011;1668;49.648;8.570;2023-11-19T07:46:47;12.20;;;7.83;;
3311;SDS011;1668;49.648;8.570;2023-11-19T07:49:14;12.17;;;8.30;;
3311;SDS011;1668;49.648;8.570;2023-11-19T07:51:41;10.67;;;7.63;;
3311;SDS011;1668;49.648;8.570;2023-11-19T07:54:08;5.60;;;3.23;;
3311;SDS011;1668;49.648;8.570;2023-11-19T07:56:36;5.60;;;2.80;;
3311;SDS011;1668;49.648;8.570;2023-11-19T07:59:03;2.30;;;2.00;;
3311;SDS011;1668;49.648;8.570;2023-11-19T08:01:30;1.90;;;1.63;;
3311;SDS011;1668;49.648;8.570;2023-11-19T08:03:57;10.90;;;6.27;;
3311;SDS011;1668;49.648;8.570;2023-11-19T08:06:23;10.47;;;5.40;;
3311;SDS011;1668;49.648;8.570;2023-11-19T08:08:51;9.10;;;2.13;;
3311;SDS011;1668;49.648;8.570;2023-11-19T08:11:18;3.77;;;2.13;;
3311;SDS011;1668;49.648;8.570;2023-11-19T08:13:46;12.07;;;7.43;;
3311;SDS011;1668;49.648;8.570;2023-11-19T08:16:13;6.67;;;3.70;;
3311;SDS011;1668;49.648;8.570;2023-11-19T08:18:41;3.83;;;2.20;;
3311;SDS011;1668;49.648;8.570;2023-11-19T08:21:09;5.40;;;3.33;;
3311;SDS011;1668;49.648;8.570;2023-11-19T08:23:36;4.47;;;2.43;;
3311;SDS011;1668;49.648;8.570;2023-11-19T08:26:03;2.80;;;2.13;;
3311;SDS011;1668;49.648;8.570;2023-11-19T08:28:30;2.17;;;1.83;;
3311;SDS011;1668;49.648;8.570;2023-11-19T08:31:00;5.10;;;2.80;;
3311;SDS011;1668;49.648;8.570;2023-11-19T08:33:27;4.50;;;2.60;;
3311;SDS011;1668;49.648;8.570;2023-11-19T08:35:54;3.50;;;2.57;;
3311;SDS011;1668;49.648;8.570;2023-11-19T08:38:21;3.67;;;2.10;;
3311;SDS011;1668;49.648;8.570;2023-11-19T08:40:48;2.93;;;1.83;;
3311;SDS011;1668;49.648;8.570;2023-11-19T08:43:15;4.90;;;2.60;;
3311;SDS011;1668;49.648;8.570;2023-11-19T08:45:42;2.93;;;2.10;;
3311;SDS011;1668;49.648;8.570;2023-11-19T08:48:11;3.83;;;1.97;;
3311;SDS011;1668;49.648;8.570;2023-11-19T08:50:38;4.37;;;1.77;;
3311;SDS011;1668;49.648;8.570;2023-11-19T08:53:04;2.90;;;1.70;;
3311;SDS011;1668;49.648;8.570;2023-11-19T08:55:32;3.13;;;2.40;;
3311;SDS011;1668;49.648;8.570;2023-11-19T08:57:58;6.83;;;2.47;;
3311;SDS011;1668;49.648;8.570;2023-11-19T09:00:26;3.70;;;2.37;;
3311;SDS011;1668;49.648;8.570;2023-11-19T09:02:53;4.67;;;3.10;;
3311;SDS011;1668;49.648;8.570;2023-11-19T09:05:21;2.70;;;2.20;;
3311;SDS011;1668;49.648;8.570;2023-11-19T09:07:48;2.60;;;1.87;;
3311;SDS011;1668;49.648;8.570;2023-11-19T09:10:15;2.30;;;1.80;;
3311;SDS011;1668;49.648;8.570;2023-11-19T09:12:42;3.53;;;1.60;;
3311;SDS011;1668;49.648;8.570;2023-11-19T09:15:09;3.90;;;2.37;;
3311;SDS011;1668;49.648;8.570;2023-11-19T09:17:36;6.00;;;2.00;;
3311;SDS011;1668;49.648;8.570;2023-11-19T09:20:04;3.57;;;1.90;;
3311;SDS011;1668;49.648;8.570;2023-11-19T09:22:34;2.93;;;1.67;;
3311;SDS011;1668;49.648;8.570;2023-11-19T09:25:01;7.50;;;3.20;;
3311;SDS011;1668;49.648;8.570;2023-11-19T09:27:28;2.47;;;1.53;;
3311;SDS011;1668;49.648;8.570;2023-11-19T09:29:54;7.23;;;4.13;;
3311;SDS011;1668;49.648;8.570;2023-11-19T09:32:23;3.50;;;3.10;;
3311;SDS011;1668;49.648;8.570;2023-11-19T09:34:50;3.90;;;2.60;;
3311;SDS011;1668;49.648;8.570;2023-11-19T09:37:17;3.27;;;2.33;;
3311;SDS011;1668;49.648;8.570;2023-11-19T09:39:45;3.53;;;2.10;;
3311;SDS011;1668;49.648;8.570;2023-11-19T09:42:12;2.40;;;1.87;;
3311;SDS011;1668;49.648;8.570;2023-11-19T09:44:39;3.67;;;1.80;;
3311;SDS011;1668;49.648;8.570;2023-11-19T09:47:08;3.27;;;1.60;;
3311;SDS011;1668;49.648;8.570;2023-11-19T09:49:37;5.47;;;2.87;;
3311;SDS011;1668;49.648;8.570;2023-11-19T09:52:05;6.20;;;3.70;;
3311;SDS011;1668;49.648;8.570;2023-11-19T09:54:31;5.17;;;2.97;;
3311;SDS011;1668;49.648;8.570;2023-11-19T09:57:00;4.00;;;2.30;;
3311;SDS011;1668;49.648;8.570;2023-11-19T09:59:29;4.60;;;2.80;;
3311;SDS011;1668;49.648;8.570;2023-11-19T10:01:56;3.83;;;2.10;;
3311;SDS011;1668;49.648;8.570;2023-11-19T10:04:23;5.50;;;2.83;;
3311;SDS011;1668;49.648;8.570;2023-11-19T10:06:51;9.77;;;2.90;;
3311;SDS011;1668;49.648;8.570;2023-11-19T10:09:18;4.30;;;2.60;;
3311;SDS011;1668;49.648;8.570;2023-11-19T10:11:45;7.03;;;3.07;;
3311;SDS011;1668;49.648;8.570;2023-11-19T10:14:14;6.10;;;2.80;;
3311;SDS011;1668;49.648;8.570;2023-11-19T10:16:41;6.90;;;3.70;;
3311;SDS011;1668;49.648;8.570;2023-11-19T10:19:11;6.13;;;3.10;;
3311;SDS011;1668;49.648;8.570;2023-11-19T10:21:44;6.13;;;3.10;;
3311;SDS011;1668;49.648;8.570;2023-11-19T10:24:12;4.10;;;3.70;;
3311;SDS011;1668;49.648;8.570;2023-11-19T10:26:39;4.10;;;2.80;;
3311;SDS011;1668;49.648;8.570;2023-11-19T10:29:07;4.13;;;3.10;;
3311;SDS011;1668;49.648;8.570;2023-11-19T10:31:35;3.00;;;1.90;;
3311;SDS011;1668;49.648;8.570;2023-11-19T10:34:02;3.87;;;2.70;;
3311;SDS011;1668;49.648;8.570;2023-11-19T10:36:39;4.23;;;2.80;;
3311;SDS011;1668;49.648;8.570;2023-11-19T10:39:07;4.47;;;3.20;;
3311;SDS011;1668;49.648;8.570;2023-11-19T10:41:35;4.07;;;3.00;;
3311;SDS011;1668;49.648;8.570;2023-11-19T10:44:05;3.87;;;2.90;;
3311;SDS011;1668;49.648;8.570;2023-11-19T10:46:39;7.40;;;2.70;;
3311;SDS011;1668;49.648;8.570;2023-11-19T10:49:07;6.13;;;2.90;;
3311;SDS011;1668;49.648;8.570;2023-11-19T10:51:34;4.93;;;2.60;;
3311;SDS011;1668;49.648;8.570;2023-11-19T10:54:02;6.43;;;2.77;;
3311;SDS011;1668;49.648;8.570;2023-11-19T10:56:31;5.40;;;2.30;;
3311;SDS011;1668;49.648;8.570;2023-11-19T10:58:59;5.33;;;2.70;;
3311;SDS011;1668;49.648;8.570;2023-11-19T11:01:31;7.10;;;2.93;;
3311;SDS011;1668;49.648;8.570;2023-11-19T11:04:07;6.17;;;2.73;;
3311;SDS011;1668;49.648;8.570;2023-11-19T11:06:40;7.57;;;2.07;;
3311;SDS011;1668;49.648;8.570;2023-11-19T11:09:07;6.20;;;2.23;;
3311;SDS011;1668;49.648;8.570;2023-11-19T11:11:38;9.73;;;2.00;;
3311;SDS011;1668;49.648;8.570;2023-11-19T11:14:08;5.23;;;2.20;;
3311;SDS011;1668;49.648;8.570;2023-11-19T11:16:39;5.67;;;1.90;;
3311;SDS011;1668;49.648;8.570;2023-11-19T11:19:10;9.70;;;1.90;;
3311;SDS011;1668;49.648;8.570;2023-11-19T11:21:38;6.47;;;1.90;;
3311;SDS011;1668;49.648;8.570;2023-11-19T11:24:23;5.77;;;1.60;;
3311;SDS011;1668;49.648;8.570;2023-11-19T11:27:20;6.30;;;1.60;;
3311;SDS011;1668;49.648;8.570;2023-11-19T11:30:08;4.70;;;1.70;;
3311;SDS011;1668;49.648;8.570;2023-11-19T11:32:45;8.47;;;1.67;;
3311;SDS011;1668;49.648;8.570;2023-11-19T11:35:27;5.20;;;1.60;;
3311;SDS011;1668;49.648;8.570;2023-11-19T11:38:00;9.03;;;2.27;;
3311;SDS011;1668;49.648;8.570;2023-11-19T11:40:30;6.90;;;2.60;;
3311;SDS011;1668;49.648;8.570;2023-11-19T11:42:57;5.27;;;1.97;;
3311;SDS011;1668;49.648;8.570;2023-11-19T11:48:08;4.47;;;1.50;;
3311;SDS011;1668;49.648;8.570;2023-11-19T11:50:46;6.80;;;1.87;;
3311;SDS011;1668;49.648;8.570;2023-11-19T11:53:18;7.60;;;1.70;;
3311;SDS011;1668;49.648;8.570;2023-11-19T11:55:55;6.27;;;2.10;;
3311;SDS011;1668;49.648;8.570;2023-11-19T11:58:28;6.00;;;1.63;;
3311;SDS011;1668;49.648;8.570;2023-11-19T12:00:57;2.10;;;1.30;;
3311;SDS011;1668;49.648;8.570;2023-11-19T12:03:27;4.73;;;1.70;;
3311;SDS011;1668;49.648;8.570;2023-11-19T12:05:56;9.70;;;1.87;;
3311;SDS011;1668;49.648;8.570;2023-11-19T12:08:24;5.77;;;1.37;;
3311;SDS011;1668;49.648;8.570;2023-11-19T12:10:53;3.40;;;1.43;;
3311;SDS011;1668;49.648;8.570;2023-11-19T12:13:23;4.90;;;1.50;;
3311;SDS011;1668;49.648;8.570;2023-11-19T12:16:09;4.83;;;1.70;;
3311;SDS011;1668;49.648;8.570;2023-11-19T12:18:38;3.70;;;1.70;;
3311;SDS011;1668;49.648;8.570;2023-11-19T12:21:08;4.30;;;1.90;;
3311;SDS011;1668;49.648;8.570;2023-11-19T12:23:44;6.60;;;1.83;;
3311;SDS011;1668;49.648;8.570;2023-11-19T12:26:31;5.50;;;1.77;;
3311;SDS011;1668;49.648;8.570;2023-11-19T12:29:00;8.70;;;1.90;;
3311;SDS011;1668;49.648;8.570;2023-11-19T12:31:29;4.63;;;1.40;;
3311;SDS011;1668;49.648;8.570;2023-11-19T12:33:56;4.77;;;1.63;;
3311;SDS011;1668;49.648;8.570;2023-11-19T12:36:24;6.50;;;2.03;;
3311;SDS011;1668;49.648;8.570;2023-11-19T12:38:51;4.90;;;1.50;;
3311;SDS011;1668;49.648;8.570;2023-11-19T12:41:18;11.40;;;2.13;;
3311;SDS011;1668;49.648;8.570;2023-11-19T12:43:48;6.33;;;2.10;;
3311;SDS011;1668;49.648;8.570;2023-11-19T12:46:19;4.80;;;1.70;;
3311;SDS011;1668;49.648;8.570;2023-11-19T12:48:47;6.43;;;2.33;;
3311;SDS011;1668;49.648;8.570;2023-11-19T12:51:14;7.63;;;1.83;;
3311;SDS011;1668;49.648;8.570;2023-11-19T12:53:49;5.70;;;1.97;;
3311;SDS011;1668;49.648;8.570;2023-11-19T12:56:19;6.17;;;1.80;;
3311;SDS011;1668;49.648;8.570;2023-11-19T12:58:46;6.83;;;1.40;;
3311;SDS011;1668;49.648;8.570;2023-11-19T13:01:15;6.97;;;2.20;;
3311;SDS011;1668;49.648;8.570;2023-11-19T13:03:43;7.27;;;2.37;;
3311;SDS011;1668;49.648;8.570;2023-11-19T13:06:11;5.50;;;1.67;;
3311;SDS011;1668;49.648;8.570;2023-11-19T13:08:41;5.23;;;1.93;;
3311;SDS011;1668;49.648;8.570;2023-11-19T13:11:11;8.03;;;2.03;;
3311;SDS011;1668;49.648;8.570;2023-11-19T13:13:54;6.77;;;1.47;;
3311;SDS011;1668;49.648;8.570;2023-11-19T13:16:22;3.77;;;1.50;;
3311;SDS011;1668;49.648;8.570;2023-11-19T13:18:49;3.80;;;1.40;;
3311;SDS011;1668;49.648;8.570;2023-11-19T13:21:16;2.83;;;1.37;;
3311;SDS011;1668;49.648;8.570;2023-11-19T13:23:43;3.30;;;1.50;;
3311;SDS011;1668;49.648;8.570;2023-11-19T13:26:11;4.37;;;1.47;;
3311;SDS011;1668;49.648;8.570;2023-11-19T13:28:38;4.10;;;1.40;;
3311;SDS011;1668;49.648;8.570;2023-11-19T13:31:05;8.77;;;1.73;;
3311;SDS011;1668;49.648;8.570;2023-11-19T13:33:32;6.73;;;1.50;;
3311;SDS011;1668;49.648;8.570;2023-11-19T13:36:01;2.90;;;1.20;;
3311;SDS011;1668;49.648;8.570;2023-11-19T13:38:31;3.90;;;1.70;;
3311;SDS011;1668;49.648;8.570;2023-11-19T13:40:58;5.73;;;1.70;;
3311;SDS011;1668;49.648;8.570;2023-11-19T13:43:26;3.43;;;1.70;;
3311;SDS011;1668;49.648;8.570;2023-11-19T13:45:54;8.57;;;2.37;;
3311;SDS011;1668;49.648;8.570;2023-11-19T13:48:21;7.20;;;2.23;;
3311;SDS011;1668;49.648;8.570;2023-11-19T13:50:48;4.10;;;1.30;;
3311;SDS011;1668;49.648;8.570;2023-11-19T13:53:15;3.43;;;1.40;;
3311;SDS011;1668;49.648;8.570;2023-11-19T13:55:42;4.87;;;1.50;;
3311;SDS011;1668;49.648;8.570;2023-11-19T13:58:09;5.17;;;1.50;;
3311;SDS011;1668;49.648;8.570;2023-11-19T14:00:37;10.57;;;2.57;;
3311;SDS011;1668;49.648;8.570;2023-11-19T14:03:07;8.03;;;2.30;;
3311;SDS011;1668;49.648;8.570;2023-11-19T14:05:34;10.53;;;2.13;;
3311;SDS011;1668;49.648;8.570;2023-11-19T14:08:01;5.50;;;1.93;;
3311;SDS011;1668;49.648;8.570;2023-11-19T14:10:28;5.20;;;2.00;;
3311;SDS011;1668;49.648;8.570;2023-11-19T14:12:55;5.20;;;2.00;;
3311;SDS011;1668;49.648;8.570;2023-11-19T14:15:23;5.67;;;2.00;;
3311;SDS011;1668;49.648;8.570;2023-11-19T14:17:51;8.63;;;2.17;;
3311;SDS011;1668;49.648;8.570;2023-11-19T14:20:18;2.90;;;1.50;;
3311;SDS011;1668;49.648;8.570;2023-11-19T14:22:45;3.57;;;1.90;;
3311;SDS011;1668;49.648;8.570;2023-11-19T14:25:14;4.03;;;1.93;;
3311;SDS011;1668;49.648;8.570;2023-11-19T14:27:42;4.23;;;1.80;;
3311;SDS011;1668;49.648;8.570;2023-11-19T14:30:11;6.40;;;2.80;;
3311;SDS011;1668;49.648;8.570;2023-11-19T14:32:39;5.63;;;2.17;;
3311;SDS011;1668;49.648;8.570;2023-11-19T14:35:10;4.70;;;2.30;;
3311;SDS011;1668;49.648;8.570;2023-11-19T14:37:37;2.60;;;1.30;;
3311;SDS011;1668;49.648;8.570;2023-11-19T14:40:04;5.57;;;1.70;;
3311;SDS011;1668;49.648;8.570;2023-11-19T14:42:34;5.77;;;2.00;;
3311;SDS011;1668;49.648;8.570;2023-11-19T14:45:02;3.63;;;1.80;;
3311;SDS011;1668;49.648;8.570;2023-11-19T14:47:29;5.93;;;1.70;;
3311;SDS011;1668;49.648;8.570;2023-11-19T14:49:56;8.63;;;1.90;;
3311;SDS011;1668;49.648;8.570;2023-11-19T14:52:24;3.50;;;1.43;;
3311;SDS011;1668;49.648;8.570;2023-11-19T14:54:51;8.63;;;1.60;;
3311;SDS011;1668;49.648;8.570;2023-11-19T14:57:19;7.70;;;1.67;;
3311;SDS011;1668;49.648;8.570;2023-11-19T14:59:46;5.50;;;1.80;;
3311;SDS011;1668;49.648;8.570;2023-11-19T15:02:12;5.27;;;1.87;;
3311;SDS011;1668;49.648;8.570;2023-11-19T15:04:39;4.70;;;1.53;;
3311;SDS011;1668;49.648;8.570;2023-11-19T15:07:06;4.13;;;1.53;;
3311;SDS011;1668;49.648;8.570;2023-11-19T15:09:34;8.57;;;1.80;;
3311;SDS011;1668;49.648;8.570;2023-11-19T15:12:01;4.17;;;1.30;;
3311;SDS011;1668;49.648;8.570;2023-11-19T15:14:29;7.90;;;2.00;;
3311;SDS011;1668;49.648;8.570;2023-11-19T15:16:56;4.23;;;1.67;;
3311;SDS011;1668;49.648;8.570;2023-11-19T15:19:23;7.50;;;2.17;;
3311;SDS011;1668;49.648;8.570;2023-11-19T15:21:50;8.93;;;2.10;;
3311;SDS011;1668;49.648;8.570;2023-11-19T15:24:17;6.10;;;1.80;;